sensor_id;sensor_type;location;lat;lon;timestamp;P1;durP1;ratioP1;P2;durP2;ratioP2
80936;SDS011;70395;51.382;7.074;2023-09-19T00:00:37;4.73;;;2.37;;
80936;SDS011;70395;51.382;7.074;2023-09-19T00:03:05;6.73;;;2.67;;
80936;SDS011;70395;51.382;7.074;2023-09-19T00:05:33;12.40;;;3.33;;
80936;SDS011;70395;51.382;7.074;2023-09-19T00:08:01;7.23;;;3.30;;
80936;SDS011;70395;51.382;7.074;2023-09-19T00:10:29;8.73;;;2.70;;
80936;SDS011;70395;51.382;7.074;2023-09-19T00:12:59;10.70;;;3.00;;
80936;SDS011;70395;51.382;7.074;2023-09-19T00:15:30;5.33;;;2.60;;
80936;SDS011;70395;51.382;7.074;2023-09-19T00:18:02;5.13;;;2.90;;
80936;SDS011;70395;51.382;7.074;2023-09-19T00:20:32;5.37;;;2.37;;
80936;SDS011;70395;51.382;7.074;2023-09-19T00:23:01;7.90;;;2.70;;
80936;SDS011;70395;51.382;7.074;2023-09-19T00:25:35;6.43;;;2.30;;
80936;SDS011;70395;51.382;7.074;2023-09-19T00:28:03;7.20;;;2.67;;
80936;SDS011;70395;51.382;7.074;2023-09-19T00:30:31;7.53;;;2.70;;
80936;SDS011;70395;51.382;7.074;2023-09-19T00:32:58;6.13;;;2.70;;
80936;SDS011;70395;51.382;7.074;2023-09-19T00:35:24;9.80;;;2.87;;
80936;SDS011;70395;51.382;7.074;2023-09-19T00:37:50;6.37;;;3.10;;
80936;SDS011;70395;51.382;7.074;2023-09-19T00:40:16;8.47;;;2.73;;
80936;SDS011;70395;51.382;7.074;2023-09-19T00:42:46;9.30;;;2.87;;
80936;SDS011;70395;51.382;7.074;2023-09-19T00:45:13;7.07;;;2.80;;
80936;SDS011;70395;51.382;7.074;2023-09-19T00:47:44;8.23;;;2.10;;
80936;SDS011;70395;51.382;7.074;2023-09-19T00:50:15;7.17;;;2.63;;
80936;SDS011;70395;51.382;7.074;2023-09-19T00:52:50;7.10;;;2.47;;
80936;SDS011;70395;51.382;7.074;2023-09-19T00:55:21;7.73;;;3.00;;
80936;SDS011;70395;51.382;7.074;2023-09-19T00:57:49;10.23;;;2.60;;
80936;SDS011;70395;51.382;7.074;2023-09-19T01:00:15;9.47;;;2.50;;
80936;SDS011;70395;51.382;7.074;2023-09-19T01:02:44;8.17;;;3.30;;
80936;SDS011;70395;51.382;7.074;2023-09-19T01:05:11;6.30;;;2.33;;
80936;SDS011;70395;51.382;7.074;2023-09-19T01:07:37;6.87;;;2.40;;
80936;SDS011;70395;51.382;7.074;2023-09-19T01:10:08;9.20;;;3.20;;
80936;SDS011;70395;51.382;7.074;2023-09-19T01:18:52;8.23;;;2.67;;
80936;SDS011;70395;51.382;7.074;2023-09-19T01:21:52;6.97;;;2.63;;
80936;SDS011;70395;51.382;7.074;2023-09-19T01:28:27;7.47;;;2.30;;
80936;SDS011;70395;51.382;7.074;2023-09-19T01:31:01;6.00;;;2.30;;
80936;SDS011;70395;51.382;7.074;2023-09-19T01:36:25;6.10;;;2.20;;
80936;SDS011;70395;51.382;7.074;2023-09-19T01:39:01;10.30;;;3.30;;
80936;SDS011;70395;51.382;7.074;2023-09-19T01:47:23;6.53;;;2.57;;
80936;SDS011;70395;51.382;7.074;2023-09-19T01:52:59;7.73;;;2.50;;
80936;SDS011;70395;51.382;7.074;2023-09-19T01:55:36;9.33;;;3.27;;
80936;SDS011;70395;51.382;7.074;2023-09-19T01:58:08;8.40;;;2.77;;
80936;SDS011;70395;51.382;7.074;2023-09-19T02:00:44;6.33;;;2.90;;
80936;SDS011;70395;51.382;7.074;2023-09-19T02:03:17;7.83;;;2.77;;
80936;SDS011;70395;51.382;7.074;2023-09-19T02:05:49;9.17;;;2.83;;
80936;SDS011;70395;51.382;7.074;2023-09-19T02:08:19;6.53;;;2.20;;
80936;SDS011;70395;51.382;7.074;2023-09-19T02:10:48;4.73;;;2.00;;
80936;SDS011;70395;51.382;7.074;2023-09-19T02:13:17;11.77;;;2.87;;
80936;SDS011;70395;51.382;7.074;2023-09-19T02:15:44;11.27;;;3.20;;
80936;SDS011;70395;51.382;7.074;2023-09-19T02:18:14;8.83;;;2.60;;
80936;SDS011;70395;51.382;7.074;2023-09-19T02:20:40;7.77;;;2.90;;
80936;SDS011;70395;51.382;7.074;2023-09-19T02:23:07;7.40;;;3.00;;
80936;SDS011;70395;51.382;7.074;2023-09-19T02:25:33;8.50;;;2.67;;
80936;SDS011;70395;51.382;7.074;2023-09-19T02:28:00;9.53;;;2.20;;
80936;SDS011;70395;51.382;7.074;2023-09-19T02:30:28;13.60;;;2.97;;
80936;SDS011;70395;51.382;7.074;2023-09-19T02:32:54;8.23;;;2.50;;
80936;SDS011;70395;51.382;7.074;2023-09-19T02:35:21;9.53;;;2.80;;
80936;SDS011;70395;51.382;7.074;2023-09-19T02:37:47;5.93;;;2.80;;
80936;SDS011;70395;51.382;7.074;2023-09-19T02:40:14;7.70;;;2.50;;
80936;SDS011;70395;51.382;7.074;2023-09-19T02:42:44;9.47;;;2.83;;
80936;SDS011;70395;51.382;7.074;2023-09-19T02:45:17;7.23;;;2.87;;
80936;SDS011;70395;51.382;7.074;2023-09-19T02:47:45;11.37;;;4.00;;
80936;SDS011;70395;51.382;7.074;2023-09-19T02:50:12;6.60;;;2.90;;
80936;SDS011;70395;51.382;7.074;2023-09-19T02:52:41;5.63;;;2.27;;
80936;SDS011;70395;51.382;7.074;2023-09-19T02:55:14;12.43;;;2.50;;
80936;SDS011;70395;51.382;7.074;2023-09-19T02:57:50;5.53;;;2.30;;
80936;SDS011;70395;51.382;7.074;2023-09-19T03:00:22;4.40;;;2.43;;
80936;SDS011;70395;51.382;7.074;2023-09-19T03:02:57;11.83;;;2.70;;
80936;SDS011;70395;51.382;7.074;2023-09-19T03:05:24;10.13;;;3.03;;
80936;SDS011;70395;51.382;7.074;2023-09-19T03:07:51;10.67;;;2.80;;
80936;SDS011;70395;51.382;7.074;2023-09-19T03:10:18;10.10;;;2.80;;
80936;SDS011;70395;51.382;7.074;2023-09-19T03:12:46;12.60;;;2.87;;
80936;SDS011;70395;51.382;7.074;2023-09-19T03:15:12;8.23;;;2.97;;
80936;SDS011;70395;51.382;7.074;2023-09-19T03:17:43;4.97;;;2.10;;
80936;SDS011;70395;51.382;7.074;2023-09-19T03:20:10;8.80;;;2.83;;
80936;SDS011;70395;51.382;7.074;2023-09-19T03:22:38;8.30;;;2.47;;
80936;SDS011;70395;51.382;7.074;2023-09-19T03:25:07;6.97;;;2.67;;
80936;SDS011;70395;51.382;7.074;2023-09-19T03:27:34;10.50;;;2.50;;
80936;SDS011;70395;51.382;7.074;2023-09-19T03:30:00;9.17;;;3.10;;
80936;SDS011;70395;51.382;7.074;2023-09-19T03:32:30;10.50;;;2.70;;
80936;SDS011;70395;51.382;7.074;2023-09-19T03:34:56;7.80;;;2.80;;
80936;SDS011;70395;51.382;7.074;2023-09-19T03:37:22;11.07;;;2.70;;
80936;SDS011;70395;51.382;7.074;2023-09-19T03:39:48;9.23;;;2.40;;
80936;SDS011;70395;51.382;7.074;2023-09-19T03:42:13;6.47;;;2.47;;
80936;SDS011;70395;51.382;7.074;2023-09-19T03:44:39;6.00;;;2.20;;
80936;SDS011;70395;51.382;7.074;2023-09-19T03:47:05;5.80;;;2.40;;
80936;SDS011;70395;51.382;7.074;2023-09-19T03:49:32;6.97;;;3.13;;
80936;SDS011;70395;51.382;7.074;2023-09-19T03:51:59;7.47;;;2.83;;
80936;SDS011;70395;51.382;7.074;2023-09-19T03:54:24;9.33;;;2.60;;
80936;SDS011;70395;51.382;7.074;2023-09-19T03:56:50;7.43;;;2.80;;
80936;SDS011;70395;51.382;7.074;2023-09-19T03:59:16;10.83;;;2.90;;
80936;SDS011;70395;51.382;7.074;2023-09-19T04:01:43;11.33;;;2.20;;
80936;SDS011;70395;51.382;7.074;2023-09-19T04:04:09;10.90;;;2.57;;
80936;SDS011;70395;51.382;7.074;2023-09-19T04:06:35;9.57;;;2.60;;
80936;SDS011;70395;51.382;7.074;2023-09-19T04:09:01;7.00;;;2.43;;
80936;SDS011;70395;51.382;7.074;2023-09-19T04:11:29;6.03;;;2.67;;
80936;SDS011;70395;51.382;7.074;2023-09-19T04:13:56;7.87;;;2.53;;
80936;SDS011;70395;51.382;7.074;2023-09-19T04:16:22;7.07;;;2.30;;
80936;SDS011;70395;51.382;7.074;2023-09-19T04:18:48;7.40;;;3.10;;
80936;SDS011;70395;51.382;7.074;2023-09-19T04:21:13;7.17;;;2.33;;
80936;SDS011;70395;51.382;7.074;2023-09-19T04:23:39;9.83;;;3.73;;
80936;SDS011;70395;51.382;7.074;2023-09-19T04:26:05;9.33;;;2.77;;
80936;SDS011;70395;51.382;7.074;2023-09-19T04:28:31;7.10;;;2.70;;
80936;SDS011;70395;51.382;7.074;2023-09-19T04:30:59;12.80;;;2.80;;
80936;SDS011;70395;51.382;7.074;2023-09-19T04:33:25;7.70;;;2.33;;
80936;SDS011;70395;51.382;7.074;2023-09-19T04:35:52;9.20;;;2.60;;
80936;SDS011;70395;51.382;7.074;2023-09-19T04:38:18;3.60;;;2.20;;
80936;SDS011;70395;51.382;7.074;2023-09-19T04:40:44;6.83;;;2.20;;
80936;SDS011;70395;51.382;7.074;2023-09-19T04:43:13;10.43;;;3.03;;
80936;SDS011;70395;51.382;7.074;2023-09-19T04:45:40;7.90;;;2.40;;
80936;SDS011;70395;51.382;7.074;2023-09-19T04:48:06;5.93;;;2.80;;
80936;SDS011;70395;51.382;7.074;2023-09-19T04:50:33;11.50;;;2.50;;
80936;SDS011;70395;51.382;7.074;2023-09-19T04:53:00;9.80;;;2.77;;
80936;SDS011;70395;51.382;7.074;2023-09-19T04:55:26;12.40;;;3.30;;
80936;SDS011;70395;51.382;7.074;2023-09-19T04:57:52;5.13;;;2.13;;
80936;SDS011;70395;51.382;7.074;2023-09-19T05:00:22;5.23;;;2.40;;
80936;SDS011;70395;51.382;7.074;2023-09-19T05:02:49;8.10;;;2.67;;
80936;SDS011;70395;51.382;7.074;2023-09-19T05:05:17;9.60;;;2.57;;
80936;SDS011;70395;51.382;7.074;2023-09-19T05:07:44;7.87;;;2.60;;
80936;SDS011;70395;51.382;7.074;2023-09-19T05:10:12;15.03;;;3.00;;
80936;SDS011;70395;51.382;7.074;2023-09-19T05:12:38;7.30;;;2.50;;
80936;SDS011;70395;51.382;7.074;2023-09-19T05:15:05;9.43;;;2.73;;
80936;SDS011;70395;51.382;7.074;2023-09-19T05:17:35;5.70;;;2.20;;
80936;SDS011;70395;51.382;7.074;2023-09-19T05:20:01;6.83;;;2.30;;
80936;SDS011;70395;51.382;7.074;2023-09-19T05:22:36;12.30;;;3.10;;
80936;SDS011;70395;51.382;7.074;2023-09-19T05:25:05;9.00;;;2.57;;
80936;SDS011;70395;51.382;7.074;2023-09-19T05:27:31;4.80;;;2.40;;
80936;SDS011;70395;51.382;7.074;2023-09-19T05:30:01;10.47;;;3.20;;
80936;SDS011;70395;51.382;7.074;2023-09-19T05:32:26;6.10;;;2.60;;
80936;SDS011;70395;51.382;7.074;2023-09-19T05:34:52;6.60;;;2.47;;
80936;SDS011;70395;51.382;7.074;2023-09-19T05:37:18;6.23;;;2.87;;
80936;SDS011;70395;51.382;7.074;2023-09-19T05:39:44;9.00;;;3.10;;
80936;SDS011;70395;51.382;7.074;2023-09-19T05:42:13;5.30;;;2.70;;
80936;SDS011;70395;51.382;7.074;2023-09-19T05:44:39;8.93;;;2.53;;
80936;SDS011;70395;51.382;7.074;2023-09-19T05:47:05;12.60;;;2.87;;
80936;SDS011;70395;51.382;7.074;2023-09-19T05:49:34;13.43;;;3.13;;
80936;SDS011;70395;51.382;7.074;2023-09-19T05:52:06;9.07;;;2.43;;
80936;SDS011;70395;51.382;7.074;2023-09-19T05:54:32;8.90;;;3.40;;
80936;SDS011;70395;51.382;7.074;2023-09-19T05:56:59;17.27;;;3.83;;
80936;SDS011;70395;51.382;7.074;2023-09-19T05:59:28;7.73;;;2.87;;
80936;SDS011;70395;51.382;7.074;2023-09-19T06:01:54;5.83;;;2.47;;
80936;SDS011;70395;51.382;7.074;2023-09-19T06:04:20;10.47;;;2.70;;
80936;SDS011;70395;51.382;7.074;2023-09-19T06:06:46;9.20;;;2.67;;
80936;SDS011;70395;51.382;7.074;2023-09-19T06:09:13;11.23;;;3.70;;
80936;SDS011;70395;51.382;7.074;2023-09-19T06:11:42;11.57;;;3.03;;
80936;SDS011;70395;51.382;7.074;2023-09-19T06:14:08;11.10;;;2.63;;
80936;SDS011;70395;51.382;7.074;2023-09-19T06:16:35;11.77;;;3.43;;
80936;SDS011;70395;51.382;7.074;2023-09-19T06:19:03;8.50;;;2.53;;
80936;SDS011;70395;51.382;7.074;2023-09-19T06:21:31;10.70;;;2.83;;
80936;SDS011;70395;51.382;7.074;2023-09-19T06:23:57;7.47;;;2.70;;
80936;SDS011;70395;51.382;7.074;2023-09-19T06:26:24;9.13;;;3.07;;
80936;SDS011;70395;51.382;7.074;2023-09-19T06:28:52;11.33;;;3.03;;
80936;SDS011;70395;51.382;7.074;2023-09-19T06:31:17;7.20;;;2.60;;
80936;SDS011;70395;51.382;7.074;2023-09-19T06:33:43;14.37;;;3.03;;
80936;SDS011;70395;51.382;7.074;2023-09-19T06:36:09;8.70;;;2.27;;
80936;SDS011;70395;51.382;7.074;2023-09-19T06:38:36;6.80;;;2.50;;
80936;SDS011;70395;51.382;7.074;2023-09-19T06:41:04;7.17;;;2.47;;
80936;SDS011;70395;51.382;7.074;2023-09-19T06:43:33;9.77;;;2.67;;
80936;SDS011;70395;51.382;7.074;2023-09-19T06:45:59;9.33;;;3.00;;
80936;SDS011;70395;51.382;7.074;2023-09-19T06:48:29;7.83;;;2.30;;
80936;SDS011;70395;51.382;7.074;2023-09-19T06:50:56;11.33;;;3.50;;
80936;SDS011;70395;51.382;7.074;2023-09-19T06:53:23;5.70;;;2.97;;
80936;SDS011;70395;51.382;7.074;2023-09-19T06:55:50;9.40;;;2.90;;
80936;SDS011;70395;51.382;7.074;2023-09-19T06:58:16;6.47;;;2.50;;
80936;SDS011;70395;51.382;7.074;2023-09-19T07:00:42;11.70;;;3.33;;
80936;SDS011;70395;51.382;7.074;2023-09-19T07:03:09;8.03;;;2.70;;
80936;SDS011;70395;51.382;7.074;2023-09-19T07:05:38;10.57;;;3.20;;
80936;SDS011;70395;51.382;7.074;2023-09-19T07:08:06;8.80;;;3.30;;
80936;SDS011;70395;51.382;7.074;2023-09-19T07:10:35;9.13;;;3.57;;
80936;SDS011;70395;51.382;7.074;2023-09-19T07:13:05;7.10;;;2.57;;
80936;SDS011;70395;51.382;7.074;2023-09-19T07:15:35;11.63;;;3.20;;
80936;SDS011;70395;51.382;7.074;2023-09-19T07:18:11;14.33;;;2.83;;
80936;SDS011;70395;51.382;7.074;2023-09-19T07:20:40;11.17;;;3.07;;
80936;SDS011;70395;51.382;7.074;2023-09-19T07:23:12;10.13;;;3.33;;
80936;SDS011;70395;51.382;7.074;2023-09-19T07:25:43;6.43;;;2.70;;
80936;SDS011;70395;51.382;7.074;2023-09-19T07:28:09;7.80;;;2.60;;
80936;SDS011;70395;51.382;7.074;2023-09-19T07:30:38;8.17;;;2.73;;
80936;SDS011;70395;51.382;7.074;2023-09-19T07:33:04;12.80;;;3.13;;
80936;SDS011;70395;51.382;7.074;2023-09-19T07:35:31;8.43;;;3.03;;
80936;SDS011;70395;51.382;7.074;2023-09-19T07:37:57;8.67;;;3.13;;
80936;SDS011;70395;51.382;7.074;2023-09-19T07:40:23;9.27;;;3.20;;
80936;SDS011;70395;51.382;7.074;2023-09-19T07:42:56;10.13;;;2.90;;
80936;SDS011;70395;51.382;7.074;2023-09-19T07:45:26;10.53;;;3.07;;
80936;SDS011;70395;51.382;7.074;2023-09-19T07:47:55;11.87;;;2.97;;
80936;SDS011;70395;51.382;7.074;2023-09-19T07:50:21;8.50;;;4.27;;
80936;SDS011;70395;51.382;7.074;2023-09-19T07:52:47;16.47;;;2.93;;
80936;SDS011;70395;51.382;7.074;2023-09-19T07:55:18;13.40;;;2.83;;
80936;SDS011;70395;51.382;7.074;2023-09-19T07:57:48;6.00;;;2.63;;
80936;SDS011;70395;51.382;7.074;2023-09-19T08:00:20;10.87;;;2.80;;
80936;SDS011;70395;51.382;7.074;2023-09-19T08:02:46;7.10;;;2.67;;
80936;SDS011;70395;51.382;7.074;2023-09-19T08:05:13;7.23;;;2.83;;
80936;SDS011;70395;51.382;7.074;2023-09-19T08:07:43;7.13;;;2.50;;
80936;SDS011;70395;51.382;7.074;2023-09-19T08:10:13;14.93;;;3.30;;
80936;SDS011;70395;51.382;7.074;2023-09-19T08:12:43;9.73;;;3.50;;
80936;SDS011;70395;51.382;7.074;2023-09-19T08:15:14;8.47;;;3.60;;
80936;SDS011;70395;51.382;7.074;2023-09-19T08:17:42;6.27;;;2.30;;
80936;SDS011;70395;51.382;7.074;2023-09-19T08:20:09;10.17;;;3.33;;
80936;SDS011;70395;51.382;7.074;2023-09-19T08:22:48;11.43;;;2.60;;
80936;SDS011;70395;51.382;7.074;2023-09-19T08:25:22;8.17;;;2.50;;
80936;SDS011;70395;51.382;7.074;2023-09-19T08:27:51;7.50;;;2.90;;
80936;SDS011;70395;51.382;7.074;2023-09-19T08:30:18;5.77;;;3.20;;
80936;SDS011;70395;51.382;7.074;2023-09-19T08:32:56;7.47;;;2.20;;
80936;SDS011;70395;51.382;7.074;2023-09-19T08:35:23;6.80;;;2.90;;
80936;SDS011;70395;51.382;7.074;2023-09-19T08:37:49;6.23;;;2.40;;
80936;SDS011;70395;51.382;7.074;2023-09-19T08:40:16;10.37;;;2.60;;
80936;SDS011;70395;51.382;7.074;2023-09-19T08:42:52;6.87;;;2.40;;
80936;SDS011;70395;51.382;7.074;2023-09-19T08:45:20;6.63;;;2.37;;
80936;SDS011;70395;51.382;7.074;2023-09-19T08:56:51;7.60;;;2.70;;
80936;SDS011;70395;51.382;7.074;2023-09-19T08:59:22;8.73;;;2.70;;
80936;SDS011;70395;51.382;7.074;2023-09-19T09:01:54;8.97;;;2.80;;
80936;SDS011;70395;51.382;7.074;2023-09-19T09:04:22;8.40;;;3.27;;
80936;SDS011;70395;51.382;7.074;2023-09-19T09:06:50;6.73;;;2.30;;
80936;SDS011;70395;51.382;7.074;2023-09-19T09:09:20;8.43;;;3.03;;
80936;SDS011;70395;51.382;7.074;2023-09-19T09:11:47;12.63;;;3.63;;
80936;SDS011;70395;51.382;7.074;2023-09-19T09:14:18;8.73;;;2.70;;
80936;SDS011;70395;51.382;7.074;2023-09-19T09:16:46;10.13;;;2.73;;
80936;SDS011;70395;51.382;7.074;2023-09-19T09:19:13;6.97;;;2.60;;
80936;SDS011;70395;51.382;7.074;2023-09-19T09:21:45;6.93;;;2.90;;
80936;SDS011;70395;51.382;7.074;2023-09-19T09:24:31;9.30;;;2.60;;
80936;SDS011;70395;51.382;7.074;2023-09-19T09:27:03;6.37;;;2.30;;
80936;SDS011;70395;51.382;7.074;2023-09-19T09:29:49;11.30;;;2.80;;
80936;SDS011;70395;51.382;7.074;2023-09-19T09:32:17;7.80;;;3.27;;
80936;SDS011;70395;51.382;7.074;2023-09-19T09:34:45;10.40;;;2.77;;
80936;SDS011;70395;51.382;7.074;2023-09-19T09:37:36;9.83;;;2.97;;
80936;SDS011;70395;51.382;7.074;2023-09-19T09:40:03;5.60;;;2.77;;
80936;SDS011;70395;51.382;7.074;2023-09-19T09:42:39;9.90;;;3.07;;
80936;SDS011;70395;51.382;7.074;2023-09-19T09:45:39;7.90;;;2.50;;
80936;SDS011;70395;51.382;7.074;2023-09-19T09:47:57;7.83;;;2.83;;
80936;SDS011;70395;51.382;7.074;2023-09-19T09:50:39;8.27;;;2.27;;
80936;SDS011;70395;51.382;7.074;2023-09-19T09:53:20;5.23;;;1.70;;
80936;SDS011;70395;51.382;7.074;2023-09-19T09:58:26;6.87;;;2.80;;
80936;SDS011;70395;51.382;7.074;2023-09-19T10:00:57;7.57;;;2.57;;
80936;SDS011;70395;51.382;7.074;2023-09-19T10:03:33;7.60;;;3.27;;
80936;SDS011;70395;51.382;7.074;2023-09-19T10:06:05;10.80;;;2.80;;
80936;SDS011;70395;51.382;7.074;2023-09-19T10:08:57;6.93;;;2.83;;
80936;SDS011;70395;51.382;7.074;2023-09-19T10:11:42;6.17;;;2.60;;
80936;SDS011;70395;51.382;7.074;2023-09-19T10:14:11;9.90;;;2.87;;
80936;SDS011;70395;51.382;7.074;2023-09-19T10:16:50;5.07;;;2.40;;
80936;SDS011;70395;51.382;7.074;2023-09-19T10:19:50;8.13;;;2.87;;
80936;SDS011;70395;51.382;7.074;2023-09-19T10:22:22;8.83;;;3.57;;
80936;SDS011;70395;51.382;7.074;2023-09-19T10:24:52;5.43;;;2.60;;
80936;SDS011;70395;51.382;7.074;2023-09-19T10:27:20;5.87;;;3.03;;
80936;SDS011;70395;51.382;7.074;2023-09-19T10:29:51;5.80;;;2.30;;
80936;SDS011;70395;51.382;7.074;2023-09-19T10:32:21;7.40;;;2.33;;
80936;SDS011;70395;51.382;7.074;2023-09-19T10:34:48;4.57;;;2.43;;
80936;SDS011;70395;51.382;7.074;2023-09-19T10:37:15;6.80;;;2.63;;
80936;SDS011;70395;51.382;7.074;2023-09-19T10:39:48;6.23;;;2.43;;
80936;SDS011;70395;51.382;7.074;2023-09-19T10:42:16;8.10;;;2.90;;
80936;SDS011;70395;51.382;7.074;2023-09-19T10:44:45;5.90;;;2.30;;
80936;SDS011;70395;51.382;7.074;2023-09-19T10:47:19;5.03;;;2.53;;
80936;SDS011;70395;51.382;7.074;2023-09-19T10:49:49;8.43;;;2.83;;
80936;SDS011;70395;51.382;7.074;2023-09-19T10:52:15;5.47;;;2.50;;
80936;SDS011;70395;51.382;7.074;2023-09-19T10:54:48;3.60;;;2.17;;
80936;SDS011;70395;51.382;7.074;2023-09-19T10:57:22;6.80;;;2.67;;
80936;SDS011;70395;51.382;7.074;2023-09-19T11:05:40;7.30;;;2.30;;
80936;SDS011;70395;51.382;7.074;2023-09-19T11:08:10;5.57;;;1.90;;
80936;SDS011;70395;51.382;7.074;2023-09-19T11:10:44;4.40;;;1.87;;
80936;SDS011;70395;51.382;7.074;2023-09-19T11:19:09;6.73;;;2.43;;
80936;SDS011;70395;51.382;7.074;2023-09-19T11:27:11;6.20;;;2.67;;
80936;SDS011;70395;51.382;7.074;2023-09-19T11:29:39;6.50;;;2.70;;
80936;SDS011;70395;51.382;7.074;2023-09-19T11:32:05;7.10;;;2.37;;
80936;SDS011;70395;51.382;7.074;2023-09-19T11:34:41;3.77;;;2.13;;
80936;SDS011;70395;51.382;7.074;2023-09-19T11:40:25;4.17;;;2.23;;
80936;SDS011;70395;51.382;7.074;2023-09-19T11:48:15;4.93;;;2.30;;
80936;SDS011;70395;51.382;7.074;2023-09-19T11:50:43;8.40;;;2.33;;
80936;SDS011;70395;51.382;7.074;2023-09-19T11:53:12;7.43;;;2.27;;
80936;SDS011;70395;51.382;7.074;2023-09-19T11:55:41;4.53;;;2.20;;
80936;SDS011;70395;51.382;7.074;2023-09-19T11:58:08;5.13;;;2.17;;
80936;SDS011;70395;51.382;7.074;2023-09-19T12:00:37;4.43;;;2.47;;
80936;SDS011;70395;51.382;7.074;2023-09-19T12:03:08;4.00;;;2.20;;
80936;SDS011;70395;51.382;7.074;2023-09-19T12:05:36;6.00;;;2.47;;
80936;SDS011;70395;51.382;7.074;2023-09-19T12:08:05;4.53;;;2.70;;
80936;SDS011;70395;51.382;7.074;2023-09-19T12:10:44;4.80;;;1.80;;
80936;SDS011;70395;51.382;7.074;2023-09-19T12:13:17;5.43;;;2.20;;
80936;SDS011;70395;51.382;7.074;2023-09-19T12:15:43;4.63;;;2.47;;
80936;SDS011;70395;51.382;7.074;2023-09-19T12:21:28;4.10;;;2.50;;
80936;SDS011;70395;51.382;7.074;2023-09-19T12:24:06;7.43;;;2.87;;
80936;SDS011;70395;51.382;7.074;2023-09-19T12:26:47;4.70;;;2.40;;
80936;SDS011;70395;51.382;7.074;2023-09-19T12:29:16;5.90;;;2.23;;
80936;SDS011;70395;51.382;7.074;2023-09-19T12:32:05;6.10;;;2.47;;
80936;SDS011;70395;51.382;7.074;2023-09-19T12:34:31;6.40;;;2.50;;
80936;SDS011;70395;51.382;7.074;2023-09-19T12:37:05;6.40;;;2.30;;
80936;SDS011;70395;51.382;7.074;2023-09-19T12:39:46;6.80;;;2.60;;
80936;SDS011;70395;51.382;7.074;2023-09-19T12:42:25;6.40;;;2.53;;
80936;SDS011;70395;51.382;7.074;2023-09-19T12:44:57;8.93;;;2.27;;
80936;SDS011;70395;51.382;7.074;2023-09-19T12:47:26;3.40;;;1.97;;
80936;SDS011;70395;51.382;7.074;2023-09-19T12:50:16;4.30;;;3.03;;
80936;SDS011;70395;51.382;7.074;2023-09-19T12:52:50;4.43;;;2.20;;
80936;SDS011;70395;51.382;7.074;2023-09-19T12:55:22;5.13;;;2.10;;
80936;SDS011;70395;51.382;7.074;2023-09-19T12:57:56;3.93;;;2.43;;
80936;SDS011;70395;51.382;7.074;2023-09-19T13:00:36;4.37;;;2.03;;
80936;SDS011;70395;51.382;7.074;2023-09-19T13:06:05;4.57;;;1.87;;
80936;SDS011;70395;51.382;7.074;2023-09-19T13:08:31;4.23;;;1.90;;
80936;SDS011;70395;51.382;7.074;2023-09-19T13:14:13;3.40;;;2.00;;
80936;SDS011;70395;51.382;7.074;2023-09-19T13:16:58;3.97;;;2.07;;
80936;SDS011;70395;51.382;7.074;2023-09-19T13:22:41;5.00;;;1.80;;
80936;SDS011;70395;51.382;7.074;2023-09-19T13:25:17;3.70;;;1.73;;
80936;SDS011;70395;51.382;7.074;2023-09-19T13:27:45;4.40;;;1.77;;
80936;SDS011;70395;51.382;7.074;2023-09-19T13:30:19;5.87;;;1.47;;
80936;SDS011;70395;51.382;7.074;2023-09-19T13:32:46;4.50;;;1.67;;
80936;SDS011;70395;51.382;7.074;2023-09-19T13:35:13;3.90;;;1.67;;
80936;SDS011;70395;51.382;7.074;2023-09-19T13:37:40;5.13;;;2.40;;
80936;SDS011;70395;51.382;7.074;2023-09-19T13:40:10;4.20;;;1.53;;
80936;SDS011;70395;51.382;7.074;2023-09-19T13:42:38;4.30;;;1.67;;
80936;SDS011;70395;51.382;7.074;2023-09-19T13:45:05;5.40;;;1.93;;
80936;SDS011;70395;51.382;7.074;2023-09-19T13:47:33;3.17;;;1.73;;
80936;SDS011;70395;51.382;7.074;2023-09-19T13:49:59;3.40;;;1.80;;
80936;SDS011;70395;51.382;7.074;2023-09-19T13:52:29;6.77;;;1.93;;
80936;SDS011;70395;51.382;7.074;2023-09-19T13:54:58;3.13;;;1.20;;
80936;SDS011;70395;51.382;7.074;2023-09-19T13:57:24;4.33;;;1.60;;
80936;SDS011;70395;51.382;7.074;2023-09-19T13:59:54;4.17;;;2.23;;
80936;SDS011;70395;51.382;7.074;2023-09-19T14:02:23;4.00;;;1.90;;
80936;SDS011;70395;51.382;7.074;2023-09-19T14:04:49;4.40;;;1.83;;
80936;SDS011;70395;51.382;7.074;2023-09-19T14:07:17;4.23;;;1.53;;
80936;SDS011;70395;51.382;7.074;2023-09-19T14:09:44;3.43;;;1.60;;
80936;SDS011;70395;51.382;7.074;2023-09-19T14:12:11;2.63;;;1.20;;
80936;SDS011;70395;51.382;7.074;2023-09-19T14:14:39;5.70;;;1.50;;
80936;SDS011;70395;51.382;7.074;2023-09-19T14:17:05;3.10;;;1.40;;
80936;SDS011;70395;51.382;7.074;2023-09-19T14:19:32;4.87;;;1.70;;
80936;SDS011;70395;51.382;7.074;2023-09-19T14:22:00;4.03;;;1.50;;
80936;SDS011;70395;51.382;7.074;2023-09-19T14:24:32;6.30;;;2.80;;
80936;SDS011;70395;51.382;7.074;2023-09-19T14:26:58;3.83;;;1.37;;
80936;SDS011;70395;51.382;7.074;2023-09-19T14:29:24;2.50;;;1.27;;
80936;SDS011;70395;51.382;7.074;2023-09-19T14:31:50;3.90;;;1.30;;
80936;SDS011;70395;51.382;7.074;2023-09-19T14:34:17;2.83;;;0.97;;
80936;SDS011;70395;51.382;7.074;2023-09-19T14:36:44;3.00;;;1.20;;
80936;SDS011;70395;51.382;7.074;2023-09-19T14:39:10;5.30;;;2.00;;
80936;SDS011;70395;51.382;7.074;2023-09-19T14:41:36;6.63;;;1.40;;
80936;SDS011;70395;51.382;7.074;2023-09-19T14:44:02;5.00;;;1.37;;
80936;SDS011;70395;51.382;7.074;2023-09-19T14:46:30;4.00;;;1.50;;
80936;SDS011;70395;51.382;7.074;2023-09-19T14:48:56;3.37;;;1.33;;
80936;SDS011;70395;51.382;7.074;2023-09-19T14:51:25;3.80;;;1.10;;
80936;SDS011;70395;51.382;7.074;2023-09-19T14:53:51;6.03;;;1.60;;
80936;SDS011;70395;51.382;7.074;2023-09-19T14:56:18;5.33;;;1.37;;
80936;SDS011;70395;51.382;7.074;2023-09-19T14:58:45;3.27;;;1.30;;
80936;SDS011;70395;51.382;7.074;2023-09-19T15:01:12;3.17;;;1.10;;
80936;SDS011;70395;51.382;7.074;2023-09-19T15:03:40;4.03;;;1.17;;
80936;SDS011;70395;51.382;7.074;2023-09-19T15:06:10;2.40;;;1.20;;
80936;SDS011;70395;51.382;7.074;2023-09-19T15:08:42;4.50;;;1.37;;
80936;SDS011;70395;51.382;7.074;2023-09-19T15:11:12;5.40;;;1.30;;
80936;SDS011;70395;51.382;7.074;2023-09-19T15:13:41;4.43;;;1.40;;
80936;SDS011;70395;51.382;7.074;2023-09-19T15:16:09;3.90;;;1.13;;
80936;SDS011;70395;51.382;7.074;2023-09-19T15:18:37;4.10;;;1.33;;
80936;SDS011;70395;51.382;7.074;2023-09-19T15:21:12;3.80;;;1.23;;
80936;SDS011;70395;51.382;7.074;2023-09-19T15:23:40;7.90;;;1.57;;
80936;SDS011;70395;51.382;7.074;2023-09-19T15:26:08;2.17;;;1.03;;
80936;SDS011;70395;51.382;7.074;2023-09-19T15:28:37;6.50;;;1.50;;
80936;SDS011;70395;51.382;7.074;2023-09-19T15:31:07;4.03;;;1.10;;
80936;SDS011;70395;51.382;7.074;2023-09-19T15:33:37;2.87;;;1.30;;
80936;SDS011;70395;51.382;7.074;2023-09-19T15:36:10;2.77;;;1.23;;
80936;SDS011;70395;51.382;7.074;2023-09-19T15:41:18;3.60;;;1.10;;
80936;SDS011;70395;51.382;7.074;2023-09-19T15:43:45;4.07;;;1.30;;
80936;SDS011;70395;51.382;7.074;2023-09-19T15:46:11;1.63;;;0.60;;
80936;SDS011;70395;51.382;7.074;2023-09-19T15:48:38;13.67;;;1.87;;
80936;SDS011;70395;51.382;7.074;2023-09-19T15:51:04;2.50;;;1.20;;
80936;SDS011;70395;51.382;7.074;2023-09-19T15:53:41;2.33;;;0.97;;
80936;SDS011;70395;51.382;7.074;2023-09-19T15:56:12;2.50;;;1.33;;
80936;SDS011;70395;51.382;7.074;2023-09-19T15:58:39;2.30;;;0.90;;
80936;SDS011;70395;51.382;7.074;2023-09-19T16:01:06;1.90;;;1.30;;
80936;SDS011;70395;51.382;7.074;2023-09-19T16:03:35;2.10;;;0.70;;
80936;SDS011;70395;51.382;7.074;2023-09-19T16:06:09;3.50;;;1.00;;
80936;SDS011;70395;51.382;7.074;2023-09-19T16:08:40;3.03;;;1.27;;
80936;SDS011;70395;51.382;7.074;2023-09-19T16:11:14;2.97;;;1.17;;
80936;SDS011;70395;51.382;7.074;2023-09-19T16:13:42;4.87;;;1.27;;